Time;durP1;ratioP1;P1;durP2;ratioP2;P2;SDS_P1;SDS_P2;PMS_P1;PMS_P2;Temp;Humidity;BMP_temperature;BMP_pressure;BME280_temperature;BME280_humidity;BME280_pressure;Samples;Min_cycle;Max_cycle;Signal;HPM_P1;HPM_P2
2021/06/11 00:01:56;;;;;;;12.55;5.45;;;;;;;;;;4385316;32;20244;-58
2021/06/11 00:04:22;;;;;;;11.00;6.70;;;;;;;;;;4380678;32;20283;-58
2021/06/11 00:06:47;;;;;;;18.35;6.87;;;;;;;;;;4374444;32;20717;-58
2021/06/11 00:09:14;;;;;;;15.82;5.93;;;;;;;;;;4370643;32;20222;-60
2021/06/11 00:11:43;;;;;;;10.18;5.82;;;;;;;;;;4383383;32;20669;-59
2021/06/11 00:14:08;;;;;;;17.67;6.75;;;;;;;;;;4384903;32;20280;-59
2021/06/11 00:16:34;;;;;;;12.57;5.53;;;;;;;;;;4383110;32;20767;-58
2021/06/11 00:18:59;;;;;;;15.27;5.50;;;;;;;;;;4385824;32;20221;-59
2021/06/11 00:21:25;;;;;;;13.57;5.30;;;;;;;;;;4380280;32;20225;-59
2021/06/11 00:23:50;;;;;;;6.68;4.90;;;;;;;;;;4385784;32;20213;-59
2021/06/11 00:26:16;;;;;;;8.82;5.35;;;;;;;;;;4382134;32;20210;-59
2021/06/11 00:28:41;;;;;;;15.45;6.07;;;;;;;;;;4384367;32;20233;-59
2021/06/11 00:31:07;;;;;;;14.55;6.03;;;;;;;;;;4378675;32;20257;-59
2021/06/11 00:33:32;;;;;;;11.40;5.95;;;;;;;;;;4374481;32;20293;-59
2021/06/11 00:35:58;;;;;;;12.73;6.50;;;;;;;;;;4381863;32;20324;-59
2021/06/11 00:38:23;;;;;;;12.32;5.35;;;;;;;;;;4385963;32;20281;-59
2021/06/11 00:40:49;;;;;;;10.95;5.12;;;;;;;;;;4381100;32;20285;-60
2021/06/11 00:43:14;;;;;;;18.92;6.25;;;;;;;;;;4387242;32;20313;-59
2021/06/11 00:45:42;;;;;;;10.20;5.25;;;;;;;;;;4380251;32;20757;-60
2021/06/11 00:48:08;;;;;;;11.00;5.45;;;;;;;;;;4385984;32;20393;-59
2021/06/11 00:50:35;;;;;;;7.53;5.50;;;;;;;;;;4379316;32;20210;-59
2021/06/11 00:53:02;;;;;;;24.85;5.75;;;;;;;;;;4374721;32;20289;-58
2021/06/11 00:55:28;;;;;;;9.48;4.18;;;;;;;;;;4378347;32;20553;-59
2021/06/11 00:57:54;;;;;;;6.72;4.20;;;;;;;;;;4388554;32;20508;-58
2021/06/11 01:00:20;;;;;;;12.23;4.40;;;;;;;;;;4381160;32;20365;-59
2021/06/11 01:02:46;;;;;;;6.68;3.65;;;;;;;;;;4373310;32;20261;-58
2021/06/11 01:05:11;;;;;;;6.45;3.80;;;;;;;;;;4377505;32;20688;-58
2021/06/11 01:07:40;;;;;;;13.40;4.32;;;;;;;;;;4387656;32;20636;-58
2021/06/11 01:10:07;;;;;;;10.77;4.03;;;;;;;;;;4389366;32;20222;-59
2021/06/11 01:12:34;;;;;;;14.35;4.15;;;;;;;;;;4388164;32;20276;-59
2021/06/11 01:15:02;;;;;;;5.28;4.62;;;;;;;;;;4378958;32;20631;-58
2021/06/11 01:17:27;;;;;;;8.35;4.78;;;;;;;;;;4388074;32;20331;-58
2021/06/11 01:19:53;;;;;;;9.02;4.28;;;;;;;;;;4379428;32;20253;-58
2021/06/11 01:22:34;;;;;;;15.40;4.18;;;;;;;;;;4386842;32;20348;-59
2021/06/11 01:25:07;;;;;;;7.50;4.68;;;;;;;;;;4379003;32;20240;-59
2021/06/11 01:27:35;;;;;;;8.90;4.32;;;;;;;;;;4358050;32;20280;-59
2021/06/11 01:30:14;;;;;;;5.10;3.90;;;;;;;;;;4374361;32;20328;-60
2021/06/11 01:32:41;;;;;;;8.77;4.57;;;;;;;;;;4372717;32;20240;-59
2021/06/11 01:35:12;;;;;;;5.68;4.10;;;;;;;;;;4379403;32;20264;-59
2021/06/11 01:37:39;;;;;;;8.38;3.60;;;;;;;;;;4372526;32;20457;-59
2021/06/11 01:40:07;;;;;;;7.43;3.70;;;;;;;;;;4376041;32;20225;-59
2021/06/11 01:42:39;;;;;;;8.02;4.43;;;;;;;;;;4387317;32;20221;-59
2021/06/11 01:45:09;;;;;;;5.62;3.42;;;;;;;;;;4382171;32;20232;-59
2021/06/11 01:47:40;;;;;;;9.25;3.62;;;;;;;;;;4372662;32;20667;-59
2021/06/11 01:50:07;;;;;;;7.60;4.35;;;;;;;;;;4372608;32;20321;-59
2021/06/11 01:52:33;;;;;;;6.55;3.78;;;;;;;;;;4377056;32;20264;-60
2021/06/11 01:55:00;;;;;;;9.75;4.00;;;;;;;;;;4376427;32;20218;-59
2021/06/11 01:57:26;;;;;;;8.45;4.05;;;;;;;;;;4398781;32;20271;-60
2021/06/11 01:59:52;;;;;;;6.20;4.15;;;;;;;;;;4378957;32;20221;-59
2021/06/11 02:02:19;;;;;;;6.85;3.85;;;;;;;;;;4397554;32;20335;-59
2021/06/11 02:04:45;;;;;;;4.82;4.22;;;;;;;;;;4372061;32;20584;-59
2021/06/11 02:07:12;;;;;;;6.47;3.87;;;;;;;;;;4370390;32;20226;-59
2021/06/11 02:09:39;;;;;;;8.52;4.20;;;;;;;;;;4376060;32;20293;-59
2021/06/11 02:12:06;;;;;;;8.57;4.10;;;;;;;;;;4385059;32;20279;-59
2021/06/11 02:14:33;;;;;;;8.85;4.25;;;;;;;;;;4381132;32;20253;-59
2021/06/11 02:17:00;;;;;;;8.43;3.87;;;;;;;;;;4383191;32;20234;-59
2021/06/11 02:19:27;;;;;;;6.00;3.45;;;;;;;;;;4381591;32;20237;-59
2021/06/11 02:21:54;;;;;;;5.18;3.72;;;;;;;;;;4383220;32;20493;-59
2021/06/11 02:24:20;;;;;;;12.80;4.60;;;;;;;;;;4382410;32;20234;-59
2021/06/11 02:26:47;;;;;;;7.20;3.78;;;;;;;;;;4382645;32;20213;-59
2021/06/11 02:29:12;;;;;;;10.95;4.30;;;;;;;;;;4383164;32;20205;-59
2021/06/11 02:31:39;;;;;;;10.25;3.90;;;;;;;;;;4373607;32;20281;-59
2021/06/11 02:34:04;;;;;;;5.85;4.35;;;;;;;;;;4376078;32;20587;-59
2021/06/11 02:36:31;;;;;;;5.37;4.43;;;;;;;;;;4380980;32;20286;-59
2021/06/11 02:38:57;;;;;;;4.87;4.37;;;;;;;;;;4384142;32;20310;-59
2021/06/11 02:41:25;;;;;;;8.10;4.80;;;;;;;;;;4380341;32;20637;-60
2021/06/11 02:43:53;;;;;;;9.60;5.20;;;;;;;;;;4384662;32;20268;-58
2021/06/11 02:46:28;;;;;;;7.50;4.57;;;;;;;;;;4380523;32;20320;-59
2021/06/11 02:49:04;;;;;;;7.25;5.35;;;;;;;;;;4384596;32;20282;-59
2021/06/11 02:51:38;;;;;;;16.62;6.70;;;;;;;;;;4370809;32;20246;-59
2021/06/11 02:54:10;;;;;;;11.38;7.45;;;;;;;;;;4376441;32;20222;-59
2021/06/11 02:57:11;;;;;;;9.38;6.53;;;;;;;;;;4384507;32;20213;-60
2021/06/11 02:59:41;;;;;;;9.07;4.07;;;;;;;;;;4364005;32;20292;-59
2021/06/11 03:02:10;;;;;;;6.57;4.50;;;;;;;;;;4377045;32;20218;-59
2021/06/11 03:04:43;;;;;;;8.25;4.07;;;;;;;;;;4378372;32;20273;-59
2021/06/11 03:07:10;;;;;;;10.18;3.97;;;;;;;;;;4387510;32;20230;-59
2021/06/11 03:09:39;;;;;;;8.68;4.57;;;;;;;;;;4383023;32;20272;-59
2021/06/11 03:12:05;;;;;;;5.70;3.90;;;;;;;;;;4398315;32;20223;-59
2021/06/11 03:14:32;;;;;;;6.10;3.50;;;;;;;;;;4383497;32;20609;-59
2021/06/11 03:17:01;;;;;;;6.05;4.00;;;;;;;;;;4386164;32;20371;-59
2021/06/11 03:19:30;;;;;;;7.50;3.87;;;;;;;;;;4383405;32;20218;-59
2021/06/11 03:22:14;;;;;;;10.07;3.80;;;;;;;;;;4385636;32;20244;-59
2021/06/11 03:25:13;;;;;;;10.85;4.00;;;;;;;;;;4378863;32;20248;-60
2021/06/11 03:27:47;;;;;;;5.28;3.50;;;;;;;;;;4359500;32;20247;-59
2021/06/11 03:30:15;;;;;;;7.90;4.22;;;;;;;;;;4377686;32;20651;-59
2021/06/11 03:32:48;;;;;;;10.05;3.60;;;;;;;;;;4374884;32;20268;-59
2021/06/11 03:35:21;;;;;;;7.53;4.43;;;;;;;;;;4378448;32;20222;-60
2021/06/11 03:37:49;;;;;;;5.60;4.62;;;;;;;;;;4389312;32;20279;-60
2021/06/11 03:40:20;;;;;;;8.15;5.32;;;;;;;;;;4378919;32;20297;-59
2021/06/11 03:42:46;;;;;;;9.10;5.62;;;;;;;;;;4388963;32;20237;-59
2021/06/11 03:45:14;;;;;;;13.23;5.72;;;;;;;;;;4378166;32;20222;-59
2021/06/11 03:47:40;;;;;;;12.70;4.82;;;;;;;;;;4389133;32;20598;-59
2021/06/11 03:50:06;;;;;;;9.95;4.95;;;;;;;;;;4378845;32;20270;-59
2021/06/11 03:52:33;;;;;;;10.50;5.68;;;;;;;;;;4378248;32;20280;-59
2021/06/11 03:55:08;;;;;;;11.15;5.10;;;;;;;;;;4381934;32;20270;-59
2021/06/11 03:57:35;;;;;;;8.68;5.12;;;;;;;;;;4359224;32;20566;-58
2021/06/11 04:00:03;;;;;;;15.30;5.78;;;;;;;;;;4375239;32;20275;-58
2021/06/11 04:02:28;;;;;;;11.93;5.62;;;;;;;;;;4388956;32;20288;-58
2021/06/11 04:04:54;;;;;;;14.87;6.10;;;;;;;;;;4372204;32;20332;-58
2021/06/11 04:07:27;;;;;;;16.42;6.22;;;;;;;;;;4386799;32;20230;-58
2021/06/11 04:10:19;;;;;;;13.60;6.85;;;;;;;;;;4380688;32;20339;-58
2021/06/11 04:12:52;;;;;;;19.87;6.65;;;;;;;;;;4358719;32;20315;-59
2021/06/11 04:15:18;;;;;;;7.93;6.22;;;;;;;;;;4377092;32;20428;-59
2021/06/11 04:17:49;;;;;;;10.65;6.05;;;;;;;;;;4388503;32;20301;-59
2021/06/11 04:20:20;;;;;;;15.18;5.90;;;;;;;;;;4378605;32;20222;-59
2021/06/11 04:22:49;;;;;;;12.27;6.32;;;;;;;;;;4388510;32;20615;-59
2021/06/11 04:25:16;;;;;;;16.37;6.03;;;;;;;;;;4379135;32;20577;-59
2021/06/11 04:27:43;;;;;;;13.80;6.47;;;;;;;;;;4387033;32;20689;-59
2021/06/11 04:30:11;;;;;;;11.90;7.65;;;;;;;;;;4377185;32;20683;-59
2021/06/11 04:32:37;;;;;;;14.25;6.20;;;;;;;;;;4374856;32;20207;-59
2021/06/11 04:35:03;;;;;;;19.60;6.53;;;;;;;;;;4376404;32;20239;-59
2021/06/11 04:37:29;;;;;;;18.80;6.40;;;;;;;;;;4388153;32;20316;-59
2021/06/11 04:39:54;;;;;;;14.40;6.35;;;;;;;;;;4377285;32;20503;-59
2021/06/11 04:42:20;;;;;;;18.58;6.05;;;;;;;;;;4378841;32;20594;-59
2021/06/11 04:44:46;;;;;;;9.80;5.97;;;;;;;;;;4377530;32;20321;-59
2021/06/11 04:47:12;;;;;;;12.27;5.68;;;;;;;;;;4387496;32;20217;-58
2021/06/11 04:49:37;;;;;;;10.65;5.18;;;;;;;;;;4382767;32;20319;-59
2021/06/11 04:52:04;;;;;;;7.97;5.93;;;;;;;;;;4376562;32;20919;-59
2021/06/11 04:54:29;;;;;;;11.23;5.50;;;;;;;;;;4384923;32;20206;-58
2021/06/11 04:56:55;;;;;;;14.70;4.87;;;;;;;;;;4372708;32;20280;-59
2021/06/11 04:59:20;;;;;;;10.40;6.22;;;;;;;;;;4377017;32;20213;-59
2021/06/11 05:01:46;;;;;;;12.25;4.62;;;;;;;;;;4373886;32;20249;-60
2021/06/11 05:04:13;;;;;;;13.23;5.43;;;;;;;;;;4374975;32;20249;-58
2021/06/11 05:06:38;;;;;;;13.32;6.37;;;;;;;;;;4382481;32;20245;-59
2021/06/11 05:09:04;;;;;;;12.45;5.93;;;;;;;;;;4380124;32;20710;-59
2021/06/11 05:11:30;;;;;;;11.00;5.20;;;;;;;;;;4384569;32;20548;-59
2021/06/11 05:13:55;;;;;;;7.45;5.30;;;;;;;;;;4383302;32;20787;-58
2021/06/11 05:16:21;;;;;;;12.02;5.78;;;;;;;;;;4379102;32;20351;-58
2021/06/11 05:18:46;;;;;;;10.80;4.85;;;;;;;;;;4374681;32;20221;-58
2021/06/11 05:21:11;;;;;;;7.55;5.05;;;;;;;;;;4380821;32;20336;-57
2021/06/11 05:23:37;;;;;;;10.35;5.30;;;;;;;;;;4374605;32;20625;-59
2021/06/11 05:26:02;;;;;;;7.00;5.45;;;;;;;;;;4361773;32;22524;-58
2021/06/11 05:28:28;;;;;;;11.80;5.57;;;;;;;;;;4357177;32;20526;-58
2021/06/11 05:30:55;;;;;;;14.15;5.32;;;;;;;;;;4366578;32;20280;-58
2021/06/11 05:33:21;;;;;;;14.07;5.53;;;;;;;;;;4371992;32;20224;-58
2021/06/11 05:35:47;;;;;;;11.27;6.57;;;;;;;;;;4371538;32;20264;-59
2021/06/11 05:38:13;;;;;;;12.45;5.57;;;;;;;;;;4370289;32;20627;-59
2021/06/11 05:40:39;;;;;;;19.17;5.90;;;;;;;;;;4370026;32;20229;-59
2021/06/11 05:43:05;;;;;;;16.37;6.45;;;;;;;;;;4369644;32;20686;-59
2021/06/11 05:45:31;;;;;;;21.58;5.62;;;;;;;;;;4369922;32;20283;-59
2021/06/11 05:47:57;;;;;;;14.43;5.90;;;;;;;;;;4370197;32;20255;-59
2021/06/11 05:50:24;;;;;;;12.32;5.15;;;;;;;;;;4369469;32;20214;-58
2021/06/11 05:52:50;;;;;;;9.38;5.82;;;;;;;;;;4369758;32;20226;-59
2021/06/11 05:55:15;;;;;;;9.40;6.22;;;;;;;;;;4356118;32;20249;-58
2021/06/11 05:57:41;;;;;;;10.15;5.72;;;;;;;;;;4370371;32;20340;-59
2021/06/11 06:00:09;;;;;;;16.48;5.75;;;;;;;;;;4370836;32;20247;-59
2021/06/11 06:02:34;;;;;;;12.30;5.75;;;;;;;;;;4371589;32;20223;-59
2021/06/11 06:05:00;;;;;;;10.13;5.62;;;;;;;;;;4377443;32;20233;-59
2021/06/11 06:07:25;;;;;;;15.20;6.25;;;;;;;;;;4383500;32;20269;-59
2021/06/11 06:09:51;;;;;;;13.35;5.80;;;;;;;;;;4379238;32;20198;-59
2021/06/11 06:12:17;;;;;;;11.20;5.78;;;;;;;;;;4371618;32;20238;-59
2021/06/11 06:14:42;;;;;;;10.15;5.65;;;;;;;;;;4375222;32;20650;-59
2021/06/11 06:17:08;;;;;;;8.98;4.80;;;;;;;;;;4377314;32;20346;-59
2021/06/11 06:19:33;;;;;;;11.20;5.72;;;;;;;;;;4373875;32;20218;-58
2021/06/11 06:21:59;;;;;;;11.15;5.35;;;;;;;;;;4365366;32;20536;-58
2021/06/11 06:24:24;;;;;;;9.38;5.78;;;;;;;;;;4376071;32;20547;-58
2021/06/11 06:26:50;;;;;;;8.48;5.07;;;;;;;;;;4378169;32;20774;-58
2021/06/11 06:29:15;;;;;;;6.95;5.35;;;;;;;;;;4376229;32;20401;-59
2021/06/11 06:31:41;;;;;;;14.13;5.87;;;;;;;;;;4363425;32;20464;-59
2021/06/11 06:34:06;;;;;;;12.60;5.03;;;;;;;;;;4359935;32;20294;-59
2021/06/11 06:36:32;;;;;;;14.52;5.07;;;;;;;;;;4368261;32;20348;-58
2021/06/11 06:39:01;;;;;;;13.73;4.78;;;;;;;;;;4362399;32;20308;-58
2021/06/11 06:41:26;;;;;;;12.65;5.55;;;;;;;;;;4364336;32;20307;-58
2021/06/11 06:43:52;;;;;;;7.95;5.12;;;;;;;;;;4367530;32;20321;-58
2021/06/11 06:46:21;;;;;;;6.62;5.18;;;;;;;;;;4358035;32;20476;-59
2021/06/11 06:48:48;;;;;;;14.25;7.97;;;;;;;;;;4367954;32;20375;-58
2021/06/11 06:51:14;;;;;;;10.38;5.65;;;;;;;;;;4361664;32;20827;-59
2021/06/11 06:53:39;;;;;;;9.60;4.82;;;;;;;;;;4369097;32;20218;-59
2021/06/11 06:56:05;;;;;;;11.35;6.12;;;;;;;;;;4364200;32;20230;-58
2021/06/11 06:58:31;;;;;;;9.18;6.03;;;;;;;;;;4369033;32;20253;-58
2021/06/11 07:00:57;;;;;;;9.07;5.10;;;;;;;;;;4365371;32;20311;-58
2021/06/11 07:03:22;;;;;;;17.17;5.60;;;;;;;;;;4365791;32;20299;-58
2021/06/11 07:05:48;;;;;;;5.97;4.87;;;;;;;;;;4360662;32;20278;-59
2021/06/11 07:08:13;;;;;;;14.85;5.05;;;;;;;;;;4371120;32;20332;-58
2021/06/11 07:10:39;;;;;;;7.82;4.40;;;;;;;;;;4362872;32;20300;-58
2021/06/11 07:13:04;;;;;;;7.40;4.85;;;;;;;;;;4359655;32;20508;-59
2021/06/11 07:15:30;;;;;;;12.00;5.22;;;;;;;;;;4363519;32;20312;-59
2021/06/11 07:17:57;;;;;;;12.55;5.25;;;;;;;;;;4364473;32;20249;-59
2021/06/11 07:20:23;;;;;;;7.57;4.90;;;;;;;;;;4363342;32;20302;-59
2021/06/11 07:22:49;;;;;;;8.15;5.32;;;;;;;;;;4362578;32;20737;-59
2021/06/11 07:25:14;;;;;;;7.22;4.37;;;;;;;;;;4362874;32;20336;-58
2021/06/11 07:27:40;;;;;;;5.78;4.07;;;;;;;;;;4359635;32;20335;-58
2021/06/11 07:30:08;;;;;;;5.62;4.37;;;;;;;;;;4363979;32;20206;-58
2021/06/11 07:32:34;;;;;;;9.75;4.57;;;;;;;;;;4356850;32;20290;-59
2021/06/11 07:35:00;;;;;;;7.43;4.93;;;;;;;;;;4361947;32;20654;-59
2021/06/11 07:37:25;;;;;;;9.93;4.40;;;;;;;;;;4369510;32;20252;-59
2021/06/11 07:39:51;;;;;;;8.43;4.47;;;;;;;;;;4358219;32;20281;-59
2021/06/11 07:42:17;;;;;;;15.98;4.07;;;;;;;;;;4365646;32;21002;-59
2021/06/11 07:44:44;;;;;;;5.10;4.50;;;;;;;;;;4363360;32;20351;-59
2021/06/11 07:47:10;;;;;;;13.70;5.05;;;;;;;;;;4357825;32;20607;-60
2021/06/11 07:49:36;;;;;;;8.27;5.12;;;;;;;;;;4360147;32;20638;-59
2021/06/11 07:52:02;;;;;;;12.45;4.35;;;;;;;;;;4364435;32;20230;-59
2021/06/11 07:54:28;;;;;;;5.60;4.40;;;;;;;;;;4360384;32;20342;-59
2021/06/11 07:56:53;;;;;;;6.55;4.28;;;;;;;;;;4357684;32;20628;-59
2021/06/11 07:59:21;;;;;;;7.30;4.87;;;;;;;;;;4357896;32;20237;-60
2021/06/11 08:01:46;;;;;;;8.88;4.45;;;;;;;;;;4365177;32;20234;-60
2021/06/11 08:04:12;;;;;;;6.40;4.95;;;;;;;;;;4365001;32;20350;-59
2021/06/11 08:06:39;;;;;;;10.32;4.47;;;;;;;;;;4364354;32;20239;-60
2021/06/11 08:09:04;;;;;;;8.23;5.68;;;;;;;;;;4360530;32;20215;-59
2021/06/11 08:11:30;;;;;;;8.27;5.10;;;;;;;;;;4361865;32;20272;-60
2021/06/11 08:13:56;;;;;;;9.30;4.43;;;;;;;;;;4356219;32;20774;-60
2021/06/11 08:16:22;;;;;;;7.65;4.60;;;;;;;;;;4356544;32;20241;-59
2021/06/11 08:18:47;;;;;;;11.73;4.60;;;;;;;;;;4362783;32;20338;-61
2021/06/11 08:21:13;;;;;;;17.95;15.55;;;;;;;;;;4357544;32;20261;-60
2021/06/11 08:23:38;;;;;;;9.38;4.30;;;;;;;;;;4369025;32;20377;-60
2021/06/11 08:26:04;;;;;;;8.80;3.83;;;;;;;;;;4359572;32;20302;-60
2021/06/11 08:28:29;;;;;;;13.45;4.32;;;;;;;;;;4369565;32;20238;-59
2021/06/11 08:30:55;;;;;;;7.53;3.97;;;;;;;;;;4366363;32;20655;-59
2021/06/11 08:33:21;;;;;;;6.65;4.03;;;;;;;;;;4363412;32;20534;-60
2021/06/11 08:35:47;;;;;;;5.87;4.00;;;;;;;;;;4357346;32;20269;-60
2021/06/11 08:38:12;;;;;;;5.10;3.97;;;;;;;;;;4364554;32;20716;-60
2021/06/11 08:40:38;;;;;;;8.07;3.83;;;;;;;;;;4382422;32;20367;-60
2021/06/11 08:43:05;;;;;;;6.78;3.78;;;;;;;;;;4369581;32;20630;-58
2021/06/11 08:45:31;;;;;;;5.85;3.60;;;;;;;;;;4371010;32;20198;-58
2021/06/11 08:47:58;;;;;;;9.10;3.62;;;;;;;;;;4362863;32;20264;-59
2021/06/11 08:50:27;;;;;;;6.72;4.43;;;;;;;;;;4355792;32;20271;-60
2021/06/11 08:52:54;;;;;;;9.85;4.30;;;;;;;;;;4367229;32;20304;-60
2021/06/11 08:55:20;;;;;;;7.12;5.60;;;;;;;;;;4378796;32;20265;-60
2021/06/11 08:57:45;;;;;;;8.15;4.47;;;;;;;;;;4356223;32;20257;-60
2021/06/11 09:00:12;;;;;;;9.25;4.47;;;;;;;;;;4358864;32;20234;-59
2021/06/11 09:03:10;;;;;;;14.25;4.68;;;;;;;;;;4355864;32;20564;-59
2021/06/11 09:05:40;;;;;;;5.35;3.92;;;;;;;;;;4362759;32;20273;-60
2021/06/11 09:08:20;;;;;;;6.22;4.57;;;;;;;;;;4358946;32;20305;-60
2021/06/11 09:10:48;;;;;;;6.53;3.62;;;;;;;;;;4356235;32;20242;-59
2021/06/11 09:13:26;;;;;;;11.25;3.58;;;;;;;;;;4364398;32;20286;-59
2021/06/11 09:16:05;;;;;;;5.55;4.03;;;;;;;;;;4359952;32;20271;-59
2021/06/11 09:18:31;;;;;;;4.00;3.00;;;;;;;;;;4366467;32;20214;-59
2021/06/11 09:20:56;;;;;;;13.02;4.53;;;;;;;;;;4355678;32;20632;-59
2021/06/11 09:23:21;;;;;;;9.13;4.12;;;;;;;;;;4370187;32;20363;-60
2021/06/11 09:25:49;;;;;;;7.43;4.72;;;;;;;;;;4360804;32;20715;-59
2021/06/11 09:28:24;;;;;;;7.62;4.32;;;;;;;;;;4355679;32;20682;-60
2021/06/11 09:30:58;;;;;;;11.40;5.20;;;;;;;;;;4363407;32;20656;-60
2021/06/11 09:33:24;;;;;;;7.35;4.62;;;;;;;;;;4368212;32;20292;-60
2021/06/11 09:35:55;;;;;;;10.88;4.30;;;;;;;;;;4357955;32;20270;-59
2021/06/11 09:38:26;;;;;;;10.43;4.70;;;;;;;;;;4370277;32;20256;-59
2021/06/11 09:41:11;;;;;;;7.32;4.97;;;;;;;;;;4367547;32;20203;-60
2021/06/11 09:43:55;;;;;;;8.68;5.37;;;;;;;;;;4364466;32;20311;-59
2021/06/11 09:46:21;;;;;;;14.50;5.65;;;;;;;;;;4358367;32;20218;-60
2021/06/11 09:48:49;;;;;;;10.82;5.57;;;;;;;;;;4367042;32;20210;-61
2021/06/11 09:51:17;;;;;;;6.78;5.07;;;;;;;;;;4362702;32;20226;-60
2021/06/11 09:53:42;;;;;;;10.55;6.03;;;;;;;;;;4366529;32;20394;-59
2021/06/11 09:56:21;;;;;;;8.48;5.40;;;;;;;;;;4367699;32;20226;-59
2021/06/11 09:58:47;;;;;;;6.37;5.25;;;;;;;;;;4368898;32;20226;-60
2021/06/11 10:01:13;;;;;;;15.13;5.65;;;;;;;;;;4362630;32;20297;-59
2021/06/11 10:03:45;;;;;;;11.12;5.78;;;;;;;;;;4358615;32;20634;-60
2021/06/11 10:06:13;;;;;;;11.88;5.28;;;;;;;;;;4360980;32;20244;-60
2021/06/11 10:08:40;;;;;;;6.53;4.75;;;;;;;;;;4369288;32;20344;-61
2021/06/11 10:11:07;;;;;;;7.97;4.85;;;;;;;;;;4370567;32;20236;-59
2021/06/11 10:13:34;;;;;;;24.20;5.43;;;;;;;;;;4368728;32;20649;-60
2021/06/11 10:16:03;;;;;;;6.40;4.68;;;;;;;;;;4364884;32;20203;-59
2021/06/11 10:18:29;;;;;;;5.30;4.80;;;;;;;;;;4355237;32;20207;-59
2021/06/11 10:20:56;;;;;;;9.43;4.68;;;;;;;;;;4350154;32;20321;-60
2021/06/11 10:23:23;;;;;;;14.57;5.12;;;;;;;;;;4355568;32;20222;-60
2021/06/11 10:25:56;;;;;;;6.25;4.95;;;;;;;;;;4355491;32;20312;-60
2021/06/11 10:28:27;;;;;;;8.40;4.40;;;;;;;;;;4369615;32;20370;-59
2021/06/11 10:31:01;;;;;;;10.75;6.45;;;;;;;;;;4364218;32;20290;-59
2021/06/11 10:33:44;;;;;;;9.88;6.10;;;;;;;;;;4362891;32;20293;-59
2021/06/11 10:38:56;;;;;;;8.52;5.80;;;;;;;;;;4361436;32;20240;-59
2021/06/11 10:41:22;;;;;;;5.80;4.70;;;;;;;;;;4366442;32;20289;-59
2021/06/11 10:43:49;;;;;;;8.20;5.45;;;;;;;;;;4364288;32;20351;-59
2021/06/11 10:46:22;;;;;;;11.20;4.93;;;;;;;;;;4364751;32;20226;-58
2021/06/11 10:48:57;;;;;;;7.03;5.05;;;;;;;;;;4366081;32;20433;-59
2021/06/11 10:51:38;;;;;;;7.82;5.62;;;;;;;;;;4361311;32;20237;-59
2021/06/11 10:54:16;;;;;;;11.82;4.93;;;;;;;;;;4361758;32;20206;-59
2021/06/11 10:56:57;;;;;;;7.82;5.75;;;;;;;;;;4363523;32;20288;-60
2021/06/11 10:59:37;;;;;;;5.43;3.90;;;;;;;;;;4369303;32;20301;-59
2021/06/11 11:02:04;;;;;;;4.30;3.90;;;;;;;;;;4367548;32;20300;-59
2021/06/11 11:04:32;;;;;;;10.05;4.10;;;;;;;;;;4362772;32;20256;-59
2021/06/11 11:07:20;;;;;;;9.48;4.60;;;;;;;;;;4370117;32;20450;-60
2021/06/11 11:10:03;;;;;;;10.52;4.35;;;;;;;;;;4368108;32;20229;-59
2021/06/11 11:12:31;;;;;;;7.68;4.57;;;;;;;;;;4356350;32;20234;-60
2021/06/11 11:15:01;;;;;;;11.00;3.53;;;;;;;;;;4356967;32;20356;-60
2021/06/11 11:17:27;;;;;;;10.27;3.60;;;;;;;;;;4358679;32;20227;-59
2021/06/11 11:19:56;;;;;;;8.68;3.58;;;;;;;;;;4370052;32;20331;-59
2021/06/11 11:22:22;;;;;;;5.05;3.22;;;;;;;;;;4361426;32;20218;-59
2021/06/11 11:24:47;;;;;;;5.75;3.78;;;;;;;;;;4363421;32;20442;-59
2021/06/11 11:27:13;;;;;;;12.75;4.25;;;;;;;;;;4371317;32;20625;-59
2021/06/11 11:29:38;;;;;;;6.90;3.95;;;;;;;;;;4369769;32;20288;-59
2021/06/11 11:32:04;;;;;;;7.03;4.60;;;;;;;;;;4361212;32;20222;-59
2021/06/11 11:34:29;;;;;;;6.62;4.15;;;;;;;;;;4368947;32;20375;-59
2021/06/11 11:36:55;;;;;;;9.18;4.20;;;;;;;;;;4384095;32;20296;-59
2021/06/11 11:39:20;;;;;;;5.35;3.65;;;;;;;;;;4367838;32;20347;-59
2021/06/11 11:41:48;;;;;;;4.50;3.90;;;;;;;;;;4357817;32;20297;-60
2021/06/11 11:44:13;;;;;;;3.83;3.30;;;;;;;;;;4357693;32;20392;-60
2021/06/11 11:46:39;;;;;;;8.55;3.28;;;;;;;;;;4372179;32;20222;-59
2021/06/11 11:49:04;;;;;;;8.80;3.78;;;;;;;;;;4370689;32;20229;-59
2021/06/11 11:51:30;;;;;;;8.40;5.03;;;;;;;;;;4364290;32;20218;-59
2021/06/11 11:53:55;;;;;;;9.05;5.65;;;;;;;;;;4371535;32;20511;-59
2021/06/11 11:56:21;;;;;;;10.43;5.32;;;;;;;;;;4368729;32;20222;-59
2021/06/11 11:58:46;;;;;;;6.25;4.00;;;;;;;;;;4370060;32;20599;-60
2021/06/11 12:01:12;;;;;;;9.48;5.30;;;;;;;;;;4372635;32;20241;-60
2021/06/11 12:03:37;;;;;;;5.28;4.53;;;;;;;;;;4358732;32;20359;-60
2021/06/11 12:06:03;;;;;;;6.70;4.50;;;;;;;;;;4372579;32;20402;-59
2021/06/11 12:08:28;;;;;;;7.82;4.78;;;;;;;;;;4362933;32;20293;-60
2021/06/11 12:10:54;;;;;;;11.95;4.32;;;;;;;;;;4357529;32;20219;-60
2021/06/11 12:13:19;;;;;;;15.82;4.68;;;;;;;;;;4366925;32;20236;-60
2021/06/11 12:15:45;;;;;;;9.30;3.95;;;;;;;;;;4371715;32;20279;-59
2021/06/11 12:18:11;;;;;;;7.93;3.87;;;;;;;;;;4372011;32;20266;-59
2021/06/11 12:20:36;;;;;;;10.02;4.37;;;;;;;;;;4363045;32;20288;-59
2021/06/11 12:23:03;;;;;;;12.32;4.55;;;;;;;;;;4370901;32;20252;-59
2021/06/11 12:25:29;;;;;;;8.25;4.25;;;;;;;;;;4369198;32;20398;-59
2021/06/11 12:27:54;;;;;;;7.53;4.55;;;;;;;;;;4369517;32;20296;-59
2021/06/11 12:30:20;;;;;;;11.65;4.57;;;;;;;;;;4368787;32;20622;-59
2021/06/11 12:32:46;;;;;;;13.27;4.95;;;;;;;;;;4362256;32;20654;-59
2021/06/11 12:35:12;;;;;;;13.82;5.40;;;;;;;;;;4363234;32;20238;-59
2021/06/11 12:37:38;;;;;;;9.68;4.45;;;;;;;;;;4366685;32;20559;-59
2021/06/11 12:40:05;;;;;;;7.72;4.85;;;;;;;;;;4371236;32;20265;-59
2021/06/11 12:42:42;;;;;;;7.18;4.10;;;;;;;;;;4371988;32;20214;-59
2021/06/11 12:45:08;;;;;;;6.68;4.32;;;;;;;;;;4371099;32;20321;-59
2021/06/11 12:47:37;;;;;;;8.27;5.25;;;;;;;;;;4371537;32;20680;-59
2021/06/11 12:50:04;;;;;;;5.03;4.50;;;;;;;;;;4371912;32;20318;-59
2021/06/11 12:52:29;;;;;;;8.23;4.37;;;;;;;;;;4367675;32;20217;-60
2021/06/11 12:54:55;;;;;;;6.25;4.10;;;;;;;;;;4376168;32;20261;-60
2021/06/11 12:57:22;;;;;;;6.85;4.12;;;;;;;;;;4360946;32;20262;-59
2021/06/11 12:59:48;;;;;;;4.57;3.83;;;;;;;;;;4366222;32;20294;-59
2021/06/11 13:02:15;;;;;;;10.57;4.20;;;;;;;;;;4359013;32;20317;-59
2021/06/11 13:04:41;;;;;;;8.05;4.47;;;;;;;;;;4368941;32;20269;-59
2021/06/11 13:07:07;;;;;;;8.73;4.30;;;;;;;;;;4361952;32;20334;-60
2021/06/11 13:09:33;;;;;;;10.63;4.07;;;;;;;;;;4361619;32;20504;-58
2021/06/11 13:11:59;;;;;;;7.28;4.18;;;;;;;;;;4358070;32;20414;-58
2021/06/11 13:14:26;;;;;;;5.00;4.07;;;;;;;;;;4363212;32;20685;-58
2021/06/11 13:16:51;;;;;;;13.88;3.97;;;;;;;;;;4362038;32;20236;-59
2021/06/11 13:19:17;;;;;;;7.22;4.25;;;;;;;;;;4363599;32;20277;-59
2021/06/11 13:21:42;;;;;;;7.97;4.20;;;;;;;;;;4362141;32;20313;-59
2021/06/11 13:24:09;;;;;;;15.02;5.62;;;;;;;;;;4366998;32;20635;-59
2021/06/11 13:26:35;;;;;;;4.90;4.37;;;;;;;;;;4357747;32;20253;-58
2021/06/11 13:29:01;;;;;;;8.02;4.53;;;;;;;;;;4361950;32;20246;-59
2021/06/11 13:31:27;;;;;;;7.60;5.37;;;;;;;;;;4362012;32;20586;-59
2021/06/11 13:33:53;;;;;;;9.35;4.25;;;;;;;;;;4366280;32;20290;-59
2021/06/11 13:36:18;;;;;;;14.10;5.00;;;;;;;;;;4367415;32;20635;-59
2021/06/11 13:38:44;;;;;;;8.77;4.32;;;;;;;;;;4370925;32;20206;-58
2021/06/11 13:41:10;;;;;;;13.00;4.90;;;;;;;;;;4371407;32;20230;-58
2021/06/11 13:43:35;;;;;;;8.38;4.87;;;;;;;;;;4368582;32;20237;-58
2021/06/11 13:46:01;;;;;;;7.60;4.78;;;;;;;;;;4371454;32;20299;-58
2021/06/11 13:48:27;;;;;;;9.68;4.70;;;;;;;;;;4371313;32;20301;-58
2021/06/11 13:50:52;;;;;;;7.78;3.78;;;;;;;;;;4364550;32;20467;-59
2021/06/11 13:53:18;;;;;;;6.80;3.30;;;;;;;;;;4366019;32;20293;-59
2021/06/11 13:55:44;;;;;;;18.25;4.40;;;;;;;;;;4367749;32;20321;-61
2021/06/11 13:58:09;;;;;;;3.83;3.20;;;;;;;;;;4361039;32;20280;-59
2021/06/11 14:00:35;;;;;;;6.78;3.45;;;;;;;;;;4363434;32;20681;-58
2021/06/11 14:03:00;;;;;;;8.93;3.70;;;;;;;;;;4359677;32;20651;-58
2021/06/11 14:05:30;;;;;;;4.68;3.08;;;;;;;;;;4363830;32;20284;-60
2021/06/11 14:07:56;;;;;;;9.07;3.20;;;;;;;;;;4370467;32;20589;-59
2021/06/11 14:10:23;;;;;;;9.35;3.30;;;;;;;;;;4371093;32;20225;-59
2021/06/11 14:12:48;;;;;;;6.97;3.80;;;;;;;;;;4382349;32;20344;-59
2021/06/11 14:15:14;;;;;;;9.52;3.10;;;;;;;;;;4362062;32;20667;-59
2021/06/11 14:17:40;;;;;;;4.68;2.70;;;;;;;;;;4359626;32;20283;-59
2021/06/11 14:20:08;;;;;;;9.88;3.72;;;;;;;;;;4363559;32;20295;-59
2021/06/11 14:22:34;;;;;;;8.50;3.92;;;;;;;;;;4355798;32;20305;-60
2021/06/11 14:25:00;;;;;;;6.15;3.55;;;;;;;;;;4361576;32;20313;-60
2021/06/11 14:27:26;;;;;;;5.95;3.87;;;;;;;;;;4357110;32;20222;-59
2021/06/11 14:29:53;;;;;;;5.85;3.28;;;;;;;;;;4368848;32;20328;-59
2021/06/11 14:32:19;;;;;;;4.28;3.20;;;;;;;;;;4363174;32;20321;-59
2021/06/11 14:34:47;;;;;;;3.37;2.80;;;;;;;;;;4358504;32;20690;-59
2021/06/11 14:37:13;;;;;;;7.72;3.72;;;;;;;;;;4369394;32;20503;-60
2021/06/11 14:39:38;;;;;;;11.18;3.90;;;;;;;;;;4360495;32;20784;-59
2021/06/11 14:42:04;;;;;;;11.98;4.75;;;;;;;;;;4370168;32;20226;-60
2021/06/11 14:44:29;;;;;;;17.42;5.15;;;;;;;;;;4370977;32;20316;-59